createdAt,value
2017-08-09T00:02:18.082Z,10.47
2017-08-09T00:04:44.073Z,10.93
2017-08-09T00:07:10.061Z,12.23
2017-08-09T00:09:36.071Z,10.60
2017-08-09T00:12:02.042Z,11.37
2017-08-09T00:14:28.739Z,10.83
2017-08-09T00:16:54.726Z,11.30
2017-08-09T00:19:20.711Z,11.20
2017-08-09T00:21:46.707Z,11.33
2017-08-09T00:24:12.659Z,10.40
2017-08-09T00:26:38.630Z,9.80
2017-08-09T00:29:04.609Z,10.90
2017-08-09T00:31:30.553Z,11.67
2017-08-09T00:33:56.550Z,10.27
2017-08-09T00:36:22.497Z,10.03
2017-08-09T00:38:48.456Z,10.67
2017-08-09T00:41:14.434Z,12.23
2017-08-09T00:43:40.394Z,9.63
2017-08-09T00:46:06.399Z,9.40
2017-08-09T00:48:32.358Z,9.67
2017-08-09T00:50:58.313Z,9.30
2017-08-09T00:53:24.289Z,10.10
2017-08-09T00:55:50.330Z,8.90
2017-08-09T00:58:16.281Z,9.90
2017-08-09T01:00:42.233Z,10.57
2017-08-09T01:03:08.962Z,10.23
2017-08-09T01:05:35.661Z,9.70
2017-08-09T01:08:01.686Z,9.83
2017-08-09T01:10:28.467Z,10.53
2017-08-09T01:12:54.438Z,10.67
2017-08-09T01:15:21.133Z,9.23
2017-08-09T01:17:47.123Z,9.43
2017-08-09T01:20:13.082Z,10.27
2017-08-09T01:22:39.085Z,10.73
2017-08-09T01:25:05.777Z,8.90
2017-08-09T01:27:31.725Z,10.60
2017-08-09T01:29:57.722Z,9.60
2017-08-09T01:32:24.410Z,8.60
2017-08-09T01:34:50.383Z,8.57
2017-08-09T01:37:16.358Z,9.13
2017-08-09T01:39:42.352Z,9.27
2017-08-09T01:42:08.298Z,9.27
2017-08-09T01:44:34.250Z,7.70
2017-08-09T01:47:00.251Z,8.30
2017-08-09T01:49:26.226Z,8.57
2017-08-09T01:51:52.166Z,7.97
2017-08-09T01:54:18.899Z,6.83
2017-08-09T01:56:44.856Z,6.70
2017-08-09T01:59:10.793Z,7.50
2017-08-09T02:01:37.530Z,7.77
2017-08-09T02:04:04.209Z,6.97
2017-08-09T02:06:30.203Z,7.63
2017-08-09T02:08:56.189Z,6.13
2017-08-09T02:11:22.130Z,6.87
2017-08-09T02:13:48.142Z,6.63
2017-08-09T02:16:14.087Z,6.87
2017-08-09T02:18:40.781Z,7.30
2017-08-09T02:21:06.774Z,6.83
2017-08-09T02:23:32.717Z,7.23
2017-08-09T02:25:58.698Z,7.13
2017-08-09T02:28:24.694Z,7.13
2017-08-09T02:30:50.654Z,6.43
2017-08-09T02:33:17.370Z,6.53
2017-08-09T02:35:43.322Z,6.90
2017-08-09T02:38:09.310Z,7.37
2017-08-09T02:40:35.378Z,6.60
2017-08-09T02:43:01.326Z,6.07
2017-08-09T02:45:28.027Z,7.17
2017-08-09T02:47:54.032Z,6.70
2017-08-09T02:50:20.009Z,6.67
2017-08-09T02:52:45.989Z,7.17
2017-08-09T02:55:11.933Z,6.43
2017-08-09T02:57:37.878Z,5.93
2017-08-09T03:00:04.594Z,5.97
2017-08-09T03:02:30.581Z,5.87
2017-08-09T03:04:56.529Z,7.20
2017-08-09T03:07:23.214Z,6.07
2017-08-09T03:09:49.286Z,6.77
2017-08-09T03:12:15.227Z,6.30
2017-08-09T03:14:41.175Z,7.00
2017-08-09T03:17:07.910Z,6.80
2017-08-09T03:19:34.601Z,6.40
2017-08-09T03:22:00.595Z,6.93
2017-08-09T03:24:26.606Z,6.50
2017-08-09T03:26:52.558Z,6.63
2017-08-09T03:29:19.252Z,5.60
2017-08-09T03:31:45.262Z,6.40
2017-08-09T03:34:11.214Z,5.63
2017-08-09T03:36:37.162Z,9.63
2017-08-09T03:39:03.136Z,6.07
2017-08-09T03:41:29.082Z,6.60
2017-08-09T03:43:55.083Z,7.13
2017-08-09T03:46:21.053Z,9.37
2017-08-09T03:48:47.002Z,7.03
2017-08-09T03:51:12.994Z,6.97
2017-08-09T03:53:38.942Z,6.00
2017-08-09T03:56:04.916Z,7.70
2017-08-09T03:58:30.890Z,6.47
2017-08-09T04:00:56.838Z,6.83
2017-08-09T04:03:22.813Z,6.73
2017-08-09T04:05:48.789Z,6.30
2017-08-09T04:08:15.519Z,6.60
2017-08-09T04:10:42.243Z,7.60
2017-08-09T04:13:08.209Z,7.73
2017-08-09T04:15:35.894Z,6.50
2017-08-09T04:18:03.319Z,6.87
2017-08-09T04:20:29.307Z,7.40
2017-08-09T04:22:55.429Z,7.27
2017-08-09T04:25:21.434Z,6.87
2017-08-09T04:27:47.414Z,6.33
2017-08-09T04:30:13.414Z,8.07
2017-08-09T04:32:39.357Z,7.60
2017-08-09T04:35:05.307Z,8.13
2017-08-09T04:37:32.030Z,7.27
2017-08-09T04:39:58.779Z,7.60
2017-08-09T04:42:24.749Z,10.50
2017-08-09T04:44:50.689Z,8.50
2017-08-09T04:47:16.695Z,7.77
2017-08-09T04:49:42.647Z,8.87
2017-08-09T04:52:08.622Z,7.50
2017-08-09T04:54:34.566Z,7.80
2017-08-09T04:57:00.538Z,8.53
2017-08-09T04:59:26.521Z,7.90
2017-08-09T05:01:52.530Z,9.60
2017-08-09T05:04:18.490Z,8.33
2017-08-09T05:06:44.882Z,8.77
2017-08-09T05:09:10.920Z,8.43
2017-08-09T05:11:36.929Z,8.13
2017-08-09T05:14:02.886Z,7.67
2017-08-09T05:16:28.833Z,7.93
2017-08-09T05:18:54.837Z,7.53
2017-08-09T05:21:20.786Z,7.47
2017-08-09T05:23:46.777Z,7.73
2017-08-09T05:26:13.465Z,7.63
2017-08-09T05:28:39.424Z,7.47
2017-08-09T05:31:06.183Z,9.80
2017-08-09T05:33:32.139Z,7.83
2017-08-09T05:35:58.097Z,6.63
2017-08-09T05:38:24.163Z,8.20
2017-08-09T05:40:50.894Z,7.00
2017-08-09T05:43:17.595Z,7.70
2017-08-09T05:45:43.550Z,7.17
2017-08-09T05:48:09.539Z,6.97
2017-08-09T05:50:35.513Z,5.90
2017-08-09T05:53:01.501Z,6.37
2017-08-09T05:55:27.457Z,6.63
2017-08-09T05:57:54.161Z,6.13
2017-08-09T06:00:20.161Z,5.57
2017-08-09T06:02:46.154Z,6.30
2017-08-09T06:05:12.110Z,6.57
2017-08-09T06:07:38.862Z,7.23
2017-08-09T06:10:04.797Z,7.03
2017-08-09T06:12:30.778Z,7.17
2017-08-09T06:14:56.721Z,7.70
2017-08-09T06:17:22.676Z,7.23
2017-08-09T06:19:48.681Z,7.00
2017-08-09T06:22:14.662Z,6.07
2017-08-09T06:24:40.676Z,7.13
2017-08-09T06:27:06.636Z,6.87
2017-08-09T06:29:32.582Z,6.93
2017-08-09T06:31:58.567Z,6.43
2017-08-09T06:34:24.518Z,7.10
2017-08-09T06:36:51.201Z,6.60
2017-08-09T06:39:17.193Z,7.10
2017-08-09T06:41:43.140Z,6.97
2017-08-09T06:44:09.083Z,6.87
2017-08-09T06:46:35.807Z,6.77
2017-08-09T06:49:01.758Z,5.93
2017-08-09T06:51:27.747Z,5.60
2017-08-09T06:53:53.702Z,6.23
2017-08-09T06:56:20.426Z,6.50
2017-08-09T06:58:47.141Z,6.00
2017-08-09T07:01:13.891Z,8.40
2017-08-09T07:03:39.842Z,4.53
2017-08-09T07:06:05.827Z,5.80
2017-08-09T07:08:31.829Z,5.50
2017-08-09T07:10:57.832Z,9.97
2017-08-09T07:13:23.802Z,6.63
2017-08-09T07:15:49.806Z,6.50
2017-08-09T07:18:16.832Z,6.50
2017-08-09T07:20:42.942Z,7.20
2017-08-09T07:23:08.926Z,8.90
2017-08-09T07:25:34.923Z,7.30
2017-08-09T07:28:00.887Z,7.50
2017-08-09T07:30:27.618Z,7.30
2017-08-09T07:32:54.357Z,6.63
2017-08-09T07:35:20.327Z,5.47
2017-08-09T07:37:46.291Z,6.63
2017-08-09T07:40:12.278Z,6.20
2017-08-09T07:42:39.175Z,5.77
2017-08-09T07:45:05.208Z,5.97
2017-08-09T07:47:31.915Z,5.33
2017-08-09T07:49:57.873Z,4.67
2017-08-09T07:52:23.853Z,5.80
2017-08-09T07:54:50.564Z,6.07
2017-08-09T07:57:17.318Z,8.23
2017-08-09T07:59:43.301Z,5.37
2017-08-09T08:02:09.265Z,5.07
2017-08-09T08:04:35.313Z,5.30
2017-08-09T08:07:01.261Z,4.70
2017-08-09T08:09:27.262Z,4.23
2017-08-09T08:11:53.245Z,4.30
2017-08-09T08:14:19.194Z,3.40
2017-08-09T08:16:45.265Z,3.97
2017-08-09T08:19:11.274Z,3.30
2017-08-09T08:21:37.243Z,4.73
2017-08-09T08:24:03.203Z,3.07
2017-08-09T08:26:29.250Z,3.77
2017-08-09T08:28:55.298Z,3.80
2017-08-09T08:31:21.998Z,4.10
2017-08-09T08:33:47.949Z,3.53
2017-08-09T08:36:13.945Z,3.00
2017-08-09T08:38:40.661Z,3.50
2017-08-09T08:41:06.619Z,3.97
2017-08-09T08:43:32.630Z,3.67
2017-08-09T08:45:58.581Z,3.67
2017-08-09T08:48:24.523Z,3.73
2017-08-09T08:50:50.502Z,4.00
2017-08-09T08:53:16.510Z,3.90
2017-08-09T08:55:43.244Z,3.80
2017-08-09T08:58:09.971Z,3.60
2017-08-09T09:00:36.710Z,4.07
2017-08-09T09:03:02.675Z,4.53
2017-08-09T09:05:28.636Z,3.67
2017-08-09T09:07:54.641Z,3.30
2017-08-09T09:10:20.619Z,3.60
2017-08-09T09:12:47.347Z,3.40
2017-08-09T09:15:13.312Z,3.40
2017-08-09T09:17:39.287Z,3.80
2017-08-09T09:20:05.235Z,3.80
2017-08-09T09:22:31.230Z,3.27
2017-08-09T09:24:57.202Z,3.50
2017-08-09T09:27:23.141Z,3.87
2017-08-09T09:29:49.866Z,3.70
2017-08-09T09:32:15.811Z,3.33
2017-08-09T09:34:41.766Z,3.57
2017-08-09T09:37:07.746Z,3.60
2017-08-09T09:39:33.726Z,4.13
2017-08-09T09:41:59.684Z,3.67
2017-08-09T09:44:25.658Z,19.77
2017-08-09T09:46:51.655Z,3.73
2017-08-09T09:49:17.629Z,4.97
2017-08-09T09:51:44.325Z,3.87
2017-08-09T09:54:10.351Z,4.13
2017-08-09T09:56:37.035Z,2.80
2017-08-09T09:59:03.086Z,3.30
2017-08-09T10:01:29.793Z,3.27
2017-08-09T10:03:55.738Z,3.57
2017-08-09T10:06:21.682Z,3.77
2017-08-09T10:08:47.670Z,3.23
2017-08-09T10:11:13.665Z,3.07
2017-08-09T10:13:39.645Z,3.73
2017-08-09T10:16:05.644Z,3.40
2017-08-09T10:18:31.589Z,2.63
2017-08-09T10:20:57.590Z,3.10
2017-08-09T10:23:23.542Z,3.43
2017-08-09T10:25:49.502Z,3.00
2017-08-09T10:28:16.237Z,4.43
2017-08-09T10:30:42.230Z,3.07
2017-08-09T10:33:08.258Z,3.10
2017-08-09T10:35:34.214Z,3.23
2017-08-09T10:38:00.159Z,2.90
2017-08-09T10:40:26.881Z,2.77
2017-08-09T10:42:53.632Z,2.90
2017-08-09T10:45:19.582Z,3.20
2017-08-09T10:47:45.539Z,2.93
2017-08-09T10:50:11.526Z,2.77
2017-08-09T10:52:37.526Z,2.70
2017-08-09T10:55:03.548Z,3.10
2017-08-09T10:57:30.248Z,2.90
2017-08-09T10:59:56.233Z,2.43
2017-08-09T11:02:22.213Z,2.53
2017-08-09T11:04:48.170Z,2.90
2017-08-09T11:07:14.230Z,2.60
2017-08-09T11:09:40.187Z,2.70
2017-08-09T11:12:06.161Z,2.53
2017-08-09T11:14:32.174Z,3.30
2017-08-09T11:16:58.158Z,3.47
2017-08-09T11:19:24.901Z,3.07
2017-08-09T11:21:50.866Z,3.10
2017-08-09T11:24:16.821Z,2.70
2017-08-09T11:26:42.829Z,2.40
2017-08-09T11:29:08.777Z,2.87
2017-08-09T11:31:34.739Z,3.43
2017-08-09T11:34:00.730Z,3.47
2017-08-09T11:36:26.682Z,2.90
2017-08-09T11:38:52.665Z,3.00
2017-08-09T11:41:18.690Z,2.63
2017-08-09T11:43:44.634Z,2.57
2017-08-09T11:46:10.587Z,3.70
2017-08-09T11:48:36.623Z,2.80
2017-08-09T11:51:02.565Z,3.00
2017-08-09T11:53:28.518Z,2.73
2017-08-09T11:55:54.509Z,2.67
2017-08-09T11:58:21.214Z,3.40
2017-08-09T12:00:47.182Z,2.90
2017-08-09T12:03:13.189Z,2.73
2017-08-09T12:05:39.137Z,2.70
2017-08-09T12:08:05.118Z,2.43
2017-08-09T12:10:31.068Z,3.00
2017-08-09T12:12:57.810Z,2.67
2017-08-09T12:15:23.799Z,2.97
2017-08-09T12:17:49.758Z,3.10
2017-08-09T12:20:15.746Z,3.60
2017-08-09T12:22:41.701Z,3.00
2017-08-09T12:25:07.645Z,3.33
2017-08-09T12:27:33.629Z,3.10
2017-08-09T12:29:59.571Z,5.30
2017-08-09T12:32:25.542Z,3.60
2017-08-09T12:34:51.522Z,3.70
2017-08-09T12:37:18.214Z,2.93
2017-08-09T12:39:44.166Z,3.63
2017-08-09T12:42:10.164Z,3.70
2017-08-09T12:44:36.102Z,3.20
2017-08-09T12:47:02.094Z,3.50
2017-08-09T12:49:28.077Z,3.57
2017-08-09T12:51:54.018Z,3.53
2017-08-09T12:54:20.013Z,3.30
2017-08-09T12:56:45.953Z,3.73
2017-08-09T12:59:12.666Z,3.40
2017-08-09T13:01:38.690Z,3.00
2017-08-09T13:04:04.644Z,3.60
2017-08-09T13:06:34.281Z,3.10
2017-08-09T13:09:00.313Z,3.70
2017-08-09T13:11:26.269Z,3.50
2017-08-09T13:13:52.481Z,4.20
2017-08-09T13:16:18.446Z,3.80
2017-08-09T13:18:45.125Z,3.77
2017-08-09T13:21:11.152Z,4.40
2017-08-09T13:23:37.101Z,3.83
2017-08-09T13:26:03.086Z,4.43
2017-08-09T13:28:29.061Z,6.50
2017-08-09T13:30:55.038Z,4.30
2017-08-09T13:33:20.974Z,4.33
2017-08-09T13:35:46.913Z,3.80
2017-08-09T13:38:12.902Z,4.43
2017-08-09T13:40:38.853Z,4.30
2017-08-09T13:43:05.541Z,4.20
2017-08-09T13:45:31.525Z,4.40
2017-08-09T13:47:57.525Z,4.13
2017-08-09T13:50:23.519Z,4.30
2017-08-09T13:52:49.462Z,4.07
2017-08-09T13:55:15.404Z,4.40
2017-08-09T13:57:41.457Z,4.53
2017-08-09T14:00:07.438Z,5.77
2017-08-09T14:02:34.147Z,4.30
2017-08-09T14:05:00.191Z,4.83
2017-08-09T14:07:26.399Z,5.80
2017-08-09T14:09:53.177Z,5.43
2017-08-09T14:12:19.117Z,5.23
2017-08-09T14:14:45.074Z,4.60
2017-08-09T14:17:11.049Z,5.27
2017-08-09T14:19:37.002Z,5.73
2017-08-09T14:22:03.009Z,5.23
2017-08-09T14:24:29.703Z,4.97
2017-08-09T14:26:55.655Z,5.63
2017-08-09T14:29:21.657Z,6.67
2017-08-09T14:31:47.615Z,7.00
2017-08-09T14:34:13.611Z,6.67
2017-08-09T14:36:39.566Z,6.43
2017-08-09T14:39:05.585Z,6.73
2017-08-09T14:41:32.315Z,7.43
2017-08-09T14:43:58.305Z,7.87
2017-08-09T14:46:24.251Z,7.33
2017-08-09T14:48:50.201Z,7.57
2017-08-09T14:51:16.198Z,8.20
2017-08-09T14:53:42.138Z,7.50
2017-08-09T14:56:08.877Z,7.90
2017-08-09T14:58:34.869Z,8.10
2017-08-09T15:01:00.950Z,7.80
2017-08-09T15:03:26.889Z,7.97
2017-08-09T15:05:52.905Z,8.07
2017-08-09T15:08:18.962Z,9.00
2017-08-09T15:10:44.970Z,8.57
2017-08-09T15:13:10.966Z,8.23
2017-08-09T15:15:36.911Z,9.60
2017-08-09T15:18:02.909Z,8.10
2017-08-09T15:20:28.890Z,8.93
2017-08-09T15:22:55.615Z,8.03
2017-08-09T15:25:21.602Z,8.63
2017-08-09T15:27:47.546Z,9.70
2017-08-09T15:30:14.297Z,7.70
2017-08-09T15:32:40.281Z,8.63
2017-08-09T15:35:07.013Z,8.63
2017-08-09T15:37:33.086Z,8.67
2017-08-09T15:39:59.042Z,7.83
2017-08-09T15:42:25.057Z,8.40
2017-08-09T15:44:50.995Z,8.43
2017-08-09T15:47:16.933Z,8.10
2017-08-09T15:49:42.917Z,8.10
2017-08-09T15:52:08.893Z,7.97
2017-08-09T15:54:34.889Z,8.00
2017-08-09T15:57:00.890Z,7.43
2017-08-09T15:59:26.930Z,8.30
2017-08-09T16:01:52.882Z,7.80
2017-08-09T16:04:18.829Z,8.23
2017-08-09T16:06:44.831Z,8.03
2017-08-09T16:09:10.781Z,8.27
2017-08-09T16:11:36.766Z,8.80
2017-08-09T16:14:02.734Z,7.13
2017-08-09T16:16:28.799Z,7.53
2017-08-09T16:18:54.809Z,7.43
2017-08-09T16:21:20.815Z,8.10
2017-08-09T16:23:46.809Z,8.00
2017-08-09T16:26:12.786Z,7.80
2017-08-09T16:28:39.535Z,7.40
2017-08-09T16:31:05.521Z,8.47
2017-08-09T16:33:32.279Z,8.23
2017-08-09T16:35:58.234Z,7.27
2017-08-09T16:38:24.251Z,7.17
2017-08-09T16:40:50.206Z,7.47
2017-08-09T16:43:16.182Z,8.33
2017-08-09T16:45:42.871Z,7.60
2017-08-09T16:48:08.847Z,7.20
2017-08-09T16:50:34.833Z,7.83
2017-08-09T16:53:00.813Z,7.83
2017-08-09T16:55:26.788Z,7.93
2017-08-09T16:57:52.802Z,7.80
2017-08-09T17:00:18.784Z,7.07
2017-08-09T17:02:44.738Z,6.60
2017-08-09T17:05:10.714Z,9.83
2017-08-09T17:07:36.663Z,7.80
2017-08-09T17:10:02.680Z,7.00
2017-08-09T17:12:28.625Z,7.67
2017-08-09T17:14:54.606Z,6.87
2017-08-09T17:17:20.938Z,7.73
2017-08-09T17:19:46.881Z,7.10
2017-08-09T17:22:12.869Z,6.67
2017-08-09T17:24:38.843Z,8.17
2017-08-09T17:27:04.822Z,7.00
2017-08-09T17:29:30.821Z,7.40
2017-08-09T17:31:56.846Z,6.57
2017-08-09T17:34:22.866Z,7.87
2017-08-09T17:36:48.834Z,7.30
2017-08-09T17:39:15.155Z,6.37
2017-08-09T17:41:41.226Z,6.47
2017-08-09T17:44:07.165Z,7.90
2017-08-09T17:46:33.106Z,6.30
2017-08-09T17:48:59.089Z,6.80
2017-08-09T17:51:25.850Z,7.10
2017-08-09T17:53:51.847Z,6.53
2017-08-09T17:56:17.831Z,7.43
2017-08-09T17:58:43.779Z,7.47
2017-08-09T18:01:09.784Z,6.57
2017-08-09T18:03:36.621Z,6.70
2017-08-09T18:06:02.628Z,7.10
2017-08-09T18:08:28.633Z,6.90
2017-08-09T18:10:54.590Z,6.50
2017-08-09T18:13:20.597Z,7.07
2017-08-09T18:15:46.576Z,7.70
2017-08-09T18:18:12.551Z,7.43
2017-08-09T18:20:38.606Z,7.93
2017-08-09T18:23:04.552Z,7.07
2017-08-09T18:25:31.241Z,7.30
2017-08-09T18:27:57.280Z,8.40
2017-08-09T18:30:23.323Z,7.40
2017-08-09T18:32:49.378Z,7.17
2017-08-09T18:35:15.357Z,7.77
2017-08-09T18:37:41.346Z,7.53
2017-08-09T18:40:07.330Z,8.03
2017-08-09T18:42:33.277Z,7.23
2017-08-09T18:44:59.273Z,8.30
2017-08-09T18:47:25.242Z,7.77
2017-08-09T18:49:51.193Z,7.80
2017-08-09T18:52:17.191Z,7.30
2017-08-09T18:54:43.129Z,7.47
2017-08-09T18:57:09.819Z,7.30
2017-08-09T18:59:35.825Z,7.00
2017-08-09T19:02:01.794Z,7.53
2017-08-09T19:04:27.745Z,7.43
2017-08-09T19:06:53.746Z,6.57
2017-08-09T19:09:19.694Z,6.90
2017-08-09T19:11:46.040Z,7.00
2017-08-09T19:14:12.018Z,7.73
2017-08-09T19:16:38.082Z,7.50
2017-08-09T19:19:04.098Z,7.50
2017-08-09T19:21:30.086Z,8.10
2017-08-09T19:23:56.200Z,7.93
2017-08-09T19:26:22.219Z,9.83
2017-08-09T19:28:48.252Z,8.50
2017-08-09T19:31:14.202Z,8.37
2017-08-09T19:33:40.179Z,8.87
2017-08-09T19:36:06.159Z,8.83
2017-08-09T19:38:32.106Z,10.27
2017-08-09T19:40:58.081Z,8.57
2017-08-09T19:43:24.025Z,9.90
2017-08-09T19:45:50.753Z,9.20
2017-08-09T19:48:16.695Z,9.23
2017-08-09T19:50:42.705Z,8.90
2017-08-09T19:53:08.691Z,11.10
2017-08-09T19:55:34.727Z,9.50
2017-08-09T19:58:00.715Z,8.97
2017-08-09T20:00:26.658Z,10.53
2017-08-09T20:02:52.630Z,10.13
2017-08-09T20:05:18.604Z,10.60
2017-08-09T20:07:45.330Z,8.57
2017-08-09T20:10:12.055Z,10.03
2017-08-09T20:12:38.766Z,10.13
2017-08-09T20:15:04.754Z,10.03
2017-08-09T20:17:30.698Z,9.80
2017-08-09T20:19:57.385Z,9.00
2017-08-09T20:22:23.367Z,8.90
2017-08-09T20:24:49.313Z,10.23
2017-08-09T20:27:15.266Z,9.63
2017-08-09T20:29:41.278Z,9.30
2017-08-09T20:32:07.270Z,8.87
2017-08-09T20:34:33.261Z,9.20
2017-08-09T20:36:59.207Z,9.43
2017-08-09T20:39:25.146Z,8.60
2017-08-09T20:41:51.143Z,10.00
2017-08-09T20:44:17.086Z,9.33
2017-08-09T20:46:43.033Z,9.83
2017-08-09T20:49:09.027Z,9.60
2017-08-09T20:51:35.714Z,8.90
2017-08-09T20:54:01.726Z,9.23
2017-08-09T20:56:27.674Z,8.57
2017-08-09T20:58:54.406Z,8.47
2017-08-09T21:01:20.383Z,7.53
2017-08-09T21:03:46.403Z,8.57
2017-08-09T21:06:13.107Z,8.10
2017-08-09T21:08:39.071Z,7.93
2017-08-09T21:11:05.045Z,8.13
2017-08-09T21:13:31.031Z,8.57
2017-08-09T21:15:57.019Z,8.40
2017-08-09T21:18:22.999Z,7.83
2017-08-09T21:20:48.981Z,8.20
2017-08-09T21:23:14.922Z,9.50
2017-08-09T21:25:40.865Z,9.27
2017-08-09T21:28:06.872Z,8.50
2017-08-09T21:30:32.820Z,6.90
2017-08-09T21:32:59.510Z,7.43
2017-08-09T21:35:25.512Z,8.77
2017-08-09T21:37:51.465Z,8.83
2017-08-09T21:40:18.199Z,8.23
2017-08-09T21:42:44.203Z,8.13
2017-08-09T21:45:10.899Z,8.33
2017-08-09T21:47:36.896Z,9.23
2017-08-09T21:50:02.849Z,9.00
2017-08-09T21:52:29.582Z,9.53
2017-08-09T21:54:55.587Z,9.27
2017-08-09T21:57:21.534Z,8.47
2017-08-09T21:59:47.511Z,9.10
2017-08-09T22:02:13.499Z,9.53
2017-08-09T22:04:39.448Z,9.80
2017-08-09T22:07:05.386Z,9.70
2017-08-09T22:09:31.354Z,9.80
2017-08-09T22:11:57.293Z,9.33
2017-08-09T22:14:23.287Z,9.37
2017-08-09T22:16:49.234Z,8.00
2017-08-09T22:19:15.185Z,9.17
2017-08-09T22:21:41.200Z,9.20
2017-08-09T22:24:07.185Z,7.97
2017-08-09T22:26:33.177Z,8.03
2017-08-09T22:28:59.173Z,9.27
2017-08-09T22:31:25.127Z,8.33
2017-08-09T22:33:51.070Z,9.17
2017-08-09T22:36:17.050Z,8.67
2017-08-09T22:38:43.006Z,12.00
2017-08-09T22:41:09.011Z,9.63
2017-08-09T22:43:34.954Z,9.97
2017-08-09T22:46:00.897Z,9.17
2017-08-09T22:48:26.893Z,9.60
2017-08-09T22:50:52.855Z,9.80
2017-08-09T22:53:18.794Z,11.17
2017-08-09T22:55:44.794Z,13.70
2017-08-09T22:58:10.746Z,10.30
2017-08-09T23:00:36.705Z,11.70
2017-08-09T23:03:03.435Z,11.33
2017-08-09T23:05:29.382Z,12.27
2017-08-09T23:07:55.326Z,13.30
2017-08-09T23:10:21.308Z,11.53
2017-08-09T23:12:47.258Z,12.73
2017-08-09T23:15:13.990Z,12.87
2017-08-09T23:17:39.938Z,12.17
2017-08-09T23:20:05.877Z,13.03
2017-08-09T23:22:31.869Z,14.83
2017-08-09T23:24:57.853Z,14.20
2017-08-09T23:27:23.807Z,14.30
2017-08-09T23:29:49.801Z,15.23
2017-08-09T23:32:15.749Z,15.63
2017-08-09T23:34:41.696Z,16.73
2017-08-09T23:37:07.708Z,14.27
2017-08-09T23:39:33.659Z,15.73
2017-08-09T23:42:00.347Z,17.07
2017-08-09T23:44:26.333Z,14.10
2017-08-09T23:46:52.281Z,13.93
2017-08-09T23:49:18.262Z,14.13
2017-08-09T23:51:44.260Z,13.97
2017-08-09T23:54:10.223Z,13.13
2017-08-09T23:56:36.211Z,14.60
2017-08-09T23:59:02.191Z,12.90
